createdAt,value
2018-12-17T00:01:18.455Z,16.15
2018-12-17T00:03:45.798Z,15.35
2018-12-17T00:06:13.983Z,15.58
2018-12-17T00:08:41.642Z,15.40
2018-12-17T00:11:09.420Z,15.40
2018-12-17T00:13:37.075Z,15.53
2018-12-17T00:16:04.366Z,15.35
2018-12-17T00:18:31.986Z,15.63
2018-12-17T00:20:59.412Z,15.78
2018-12-17T00:23:27.075Z,15.50
2018-12-17T00:25:54.708Z,14.50
2018-12-17T00:28:22.356Z,14.40
2018-12-17T00:30:49.982Z,15.68
2018-12-17T00:33:17.308Z,15.80
2018-12-17T00:35:44.972Z,15.40
2018-12-17T00:38:12.651Z,14.75
2018-12-17T00:40:40.034Z,15.80
2018-12-17T00:43:07.376Z,15.25
2018-12-17T00:45:34.781Z,15.70
2018-12-17T00:48:02.398Z,15.08
2018-12-17T00:50:30.029Z,15.60
2018-12-17T00:52:58.036Z,15.60
2018-12-17T00:55:25.866Z,15.13
2018-12-17T00:57:53.462Z,15.43
2018-12-17T01:00:20.827Z,15.70
2018-12-17T01:02:48.215Z,15.53
2018-12-17T01:05:15.524Z,16.15
2018-12-17T01:07:43.494Z,15.60
2018-12-17T01:10:11.368Z,15.63
2018-12-17T01:12:39.031Z,16.02
2018-12-17T01:15:07.437Z,15.43
2018-12-17T01:17:35.682Z,16.30
2018-12-17T01:20:03.760Z,15.90
2018-12-17T01:22:31.432Z,15.90
2018-12-17T01:24:59.123Z,16.30
2018-12-17T01:27:26.848Z,16.50
2018-12-17T01:29:54.716Z,16.45
2018-12-17T01:32:22.060Z,16.30
2018-12-17T01:34:49.450Z,16.27
2018-12-17T01:37:17.345Z,15.53
2018-12-17T01:39:44.928Z,16.50
2018-12-17T01:42:12.272Z,16.57
2018-12-17T01:44:39.752Z,16.67
2018-12-17T01:47:07.429Z,16.90
2018-12-17T01:49:35.190Z,16.75
2018-12-17T01:52:02.760Z,16.40
2018-12-17T01:54:30.727Z,16.00
2018-12-17T01:56:58.387Z,16.10
2018-12-17T01:59:26.060Z,16.85
2018-12-17T02:01:54.427Z,16.37
2018-12-17T02:04:22.499Z,16.45
2018-12-17T02:06:50.230Z,16.95
2018-12-17T02:09:17.845Z,16.90
2018-12-17T02:11:45.687Z,17.20
2018-12-17T02:14:13.262Z,17.48
2018-12-17T02:16:40.810Z,17.10
2018-12-17T02:19:08.138Z,16.70
2018-12-17T02:21:35.986Z,16.25
2018-12-17T02:24:03.346Z,16.77
2018-12-17T02:26:30.683Z,17.40
2018-12-17T02:28:58.320Z,16.33
2018-12-17T02:31:25.864Z,16.50
2018-12-17T02:33:53.522Z,17.52
2018-12-17T02:36:20.826Z,17.30
2018-12-17T02:38:48.436Z,17.92
2018-12-17T02:41:16.413Z,16.97
2018-12-17T02:43:44.283Z,17.65
2018-12-17T02:46:11.723Z,17.57
2018-12-17T02:48:39.004Z,17.82
2018-12-17T02:51:06.963Z,18.32
2018-12-17T02:53:34.297Z,17.82
2018-12-17T02:56:01.672Z,17.27
2018-12-17T02:58:29.538Z,18.12
2018-12-17T03:00:57.199Z,17.92
2018-12-17T03:03:24.918Z,17.80
2018-12-17T03:05:52.274Z,17.87
2018-12-17T03:08:19.834Z,18.30
2018-12-17T03:10:47.312Z,19.00
2018-12-17T03:13:15.191Z,18.60
2018-12-17T03:15:43.070Z,18.55
2018-12-17T03:18:10.740Z,18.42
2018-12-17T03:20:38.606Z,19.27
2018-12-17T03:23:06.256Z,18.92
2018-12-17T03:25:34.238Z,19.35
2018-12-17T03:28:01.674Z,18.73
2018-12-17T03:30:29.390Z,19.10
2018-12-17T03:32:57.329Z,19.30
2018-12-17T03:35:24.780Z,19.37
2018-12-17T03:37:52.146Z,19.27
2018-12-17T03:40:19.762Z,20.10
2018-12-17T03:42:47.363Z,20.15
2018-12-17T03:45:15.229Z,19.80
2018-12-17T03:47:42.892Z,19.70
2018-12-17T03:50:10.577Z,20.40
2018-12-17T03:52:38.212Z,20.70
2018-12-17T03:55:06.083Z,21.10
2018-12-17T03:57:33.727Z,20.75
2018-12-17T04:00:01.039Z,21.50
2018-12-17T04:02:29.244Z,20.57
2018-12-17T04:04:56.684Z,20.65
2018-12-17T04:07:24.706Z,21.62
2018-12-17T04:09:52.175Z,21.90
2018-12-17T04:12:19.825Z,21.77
2018-12-17T04:14:47.899Z,22.52
2018-12-17T04:17:15.872Z,40.40
2018-12-17T04:19:44.283Z,23.15
2018-12-17T04:22:11.563Z,23.10
2018-12-17T04:24:39.846Z,22.30
2018-12-17T04:27:07.300Z,23.05
2018-12-17T04:29:34.696Z,22.70
2018-12-17T04:32:02.043Z,21.97
2018-12-17T04:34:29.391Z,22.27
2018-12-17T04:36:56.690Z,22.30
2018-12-17T04:39:24.358Z,22.40
2018-12-17T04:41:51.668Z,23.32
2018-12-17T04:44:19.282Z,23.40
2018-12-17T04:46:46.990Z,22.82
2018-12-17T04:49:14.668Z,23.60
2018-12-17T04:51:42.629Z,23.30
2018-12-17T04:54:10.594Z,22.73
2018-12-17T04:56:38.154Z,22.95
2018-12-17T04:59:05.600Z,22.90
2018-12-17T05:01:32.931Z,22.95
2018-12-17T05:04:00.786Z,22.95
2018-12-17T05:06:29.104Z,22.70
2018-12-17T05:08:56.890Z,23.47
2018-12-17T05:11:24.530Z,23.70
2018-12-17T05:13:51.872Z,23.55
2018-12-17T05:16:19.514Z,24.02
2018-12-17T05:18:47.121Z,24.47
2018-12-17T05:21:14.447Z,24.70
2018-12-17T05:23:41.791Z,24.12
2018-12-17T05:26:09.124Z,24.10
2018-12-17T05:28:36.743Z,24.20
2018-12-17T05:31:04.063Z,24.40
2018-12-17T05:33:32.228Z,23.52
2018-12-17T05:36:00.623Z,24.25
2018-12-17T05:38:28.524Z,24.40
2018-12-17T05:40:56.374Z,23.60
2018-12-17T05:43:23.678Z,23.07
2018-12-17T05:45:51.172Z,24.37
2018-12-17T05:48:19.173Z,24.20
2018-12-17T05:50:47.143Z,24.30
2018-12-17T05:53:15.525Z,24.45
2018-12-17T05:55:44.299Z,24.07
2018-12-17T05:58:12.486Z,24.12
2018-12-17T06:00:39.814Z,24.90
2018-12-17T06:03:07.503Z,24.67
2018-12-17T06:05:35.062Z,25.80
2018-12-17T06:08:03.029Z,25.30
2018-12-17T06:10:30.391Z,24.50
2018-12-17T06:12:58.072Z,25.55
2018-12-17T06:15:25.362Z,25.25
2018-12-17T06:17:52.686Z,23.92
2018-12-17T06:20:20.375Z,26.02
2018-12-17T06:22:48.010Z,24.95
2018-12-17T06:25:15.948Z,24.92
2018-12-17T06:27:43.326Z,25.55
2018-12-17T06:30:11.280Z,25.00
2018-12-17T06:32:38.619Z,24.82
2018-12-17T06:35:06.912Z,25.50
2018-12-17T06:37:34.571Z,25.50
2018-12-17T06:40:02.307Z,25.10
2018-12-17T06:42:29.657Z,25.45
2018-12-17T06:44:57.461Z,24.67
2018-12-17T06:47:25.322Z,24.80
2018-12-17T06:49:52.889Z,26.15
2018-12-17T06:52:20.237Z,25.62
2018-12-17T06:54:54.586Z,26.35
2018-12-17T06:57:17.480Z,25.65
2018-12-17T06:59:45.073Z,26.80
2018-12-17T07:02:13.144Z,26.00
2018-12-17T07:04:41.112Z,26.68
2018-12-17T07:07:08.979Z,26.65
2018-12-17T07:09:36.376Z,27.20
2018-12-17T07:12:03.670Z,26.60
2018-12-17T07:14:36.439Z,26.62
2018-12-17T07:17:01.063Z,27.55
2018-12-17T07:19:28.916Z,26.57
2018-12-17T07:21:56.288Z,26.68
2018-12-17T07:24:24.459Z,27.42
2018-12-17T07:26:51.808Z,26.20
2018-12-17T07:29:19.131Z,27.90
2018-12-17T07:31:47.041Z,26.60
2018-12-17T07:34:14.383Z,28.45
2018-12-17T07:36:41.711Z,27.93
2018-12-17T07:39:09.615Z,29.00
2018-12-17T07:41:37.100Z,29.32
2018-12-17T07:44:04.564Z,28.45
2018-12-17T07:46:32.583Z,27.85
2018-12-17T07:49:00.418Z,28.95
2018-12-17T07:51:28.337Z,29.35
2018-12-17T07:53:55.707Z,28.25
2018-12-17T07:56:23.580Z,28.50
2018-12-17T07:58:51.220Z,28.90
2018-12-17T08:01:19.190Z,28.67
2018-12-17T08:03:46.558Z,28.20
2018-12-17T08:06:14.210Z,28.67
2018-12-17T08:08:42.178Z,28.65
2018-12-17T08:11:10.045Z,28.62
2018-12-17T08:13:38.020Z,28.42
2018-12-17T08:16:05.359Z,29.10
2018-12-17T08:18:33.014Z,30.02
2018-12-17T08:21:00.905Z,30.55
2018-12-17T08:23:28.290Z,29.60
2018-12-17T08:25:56.123Z,29.65
2018-12-17T08:28:23.990Z,30.30
2018-12-17T08:30:51.470Z,30.47
2018-12-17T08:33:18.752Z,31.23
2018-12-17T08:35:46.671Z,30.62
2018-12-17T08:38:14.331Z,34.88
2018-12-17T08:40:41.727Z,33.18
2018-12-17T08:43:09.563Z,31.37
2018-12-17T08:45:37.213Z,32.05
2018-12-17T08:48:05.192Z,32.83
2018-12-17T08:50:33.159Z,31.60
2018-12-17T08:53:00.830Z,31.75
2018-12-17T08:55:28.489Z,32.23
2018-12-17T08:57:56.140Z,32.97
2018-12-17T09:00:23.504Z,31.87
2018-12-17T09:02:50.847Z,32.37
2018-12-17T09:05:18.201Z,32.98
2018-12-17T09:07:45.851Z,33.60
2018-12-17T09:10:13.459Z,32.98
2018-12-17T09:12:41.097Z,33.45
2018-12-17T09:15:08.450Z,33.23
2018-12-17T09:17:35.844Z,34.33
2018-12-17T09:20:03.879Z,34.23
2018-12-17T09:22:31.527Z,33.50
2018-12-17T09:24:59.416Z,34.30
2018-12-17T09:27:26.955Z,33.67
2018-12-17T09:29:54.943Z,34.30
2018-12-17T09:32:22.912Z,34.17
2018-12-17T09:34:50.885Z,34.10
2018-12-17T09:37:18.630Z,33.70
2018-12-17T09:39:46.063Z,34.65
2018-12-17T09:42:13.426Z,34.23
2018-12-17T09:44:41.025Z,36.33
2018-12-17T09:47:08.387Z,35.78
2018-12-17T09:49:35.750Z,34.23
2018-12-17T09:52:03.151Z,36.40
2018-12-17T09:54:30.851Z,34.88
2018-12-17T09:56:58.178Z,34.88
2018-12-17T09:59:25.588Z,34.33
2018-12-17T10:01:52.994Z,33.02
2018-12-17T10:04:20.761Z,34.03
2018-12-17T10:06:48.719Z,33.73
2018-12-17T10:09:16.312Z,34.27
2018-12-17T10:11:43.675Z,34.60
2018-12-17T10:14:10.997Z,34.78
2018-12-17T10:16:38.766Z,35.00
2018-12-17T10:19:06.082Z,35.10
2018-12-17T10:21:33.459Z,35.03
2018-12-17T10:24:01.345Z,34.90
2018-12-17T10:26:29.535Z,34.95
2018-12-17T10:28:56.842Z,36.00
2018-12-17T10:31:24.151Z,35.45
2018-12-17T10:33:52.067Z,35.40
2018-12-17T10:36:19.422Z,35.33
2018-12-17T10:38:47.044Z,38.02
2018-12-17T10:41:14.688Z,35.15
2018-12-17T10:43:42.060Z,36.03
2018-12-17T10:46:09.404Z,35.90
2018-12-17T10:48:36.706Z,36.20
2018-12-17T10:51:04.836Z,35.75
2018-12-17T10:53:32.431Z,36.05
2018-12-17T10:56:01.843Z,35.70
2018-12-17T10:58:29.767Z,36.70
2018-12-17T11:01:02.506Z,36.48
2018-12-17T11:03:34.304Z,35.68
2018-12-17T11:06:05.039Z,36.70
2018-12-17T11:08:32.380Z,36.20
2018-12-17T11:10:59.952Z,35.70
2018-12-17T11:13:27.613Z,36.25
2018-12-17T11:15:55.285Z,36.17
2018-12-17T11:18:22.744Z,35.70
2018-12-17T11:20:50.406Z,37.17
2018-12-17T11:23:18.270Z,36.40
2018-12-17T11:25:45.972Z,35.80
2018-12-17T11:28:14.622Z,37.33
2018-12-17T11:30:46.495Z,34.67
2018-12-17T11:33:11.287Z,38.50
2018-12-17T11:35:38.690Z,37.80
2018-12-17T11:38:06.094Z,36.63
2018-12-17T11:40:33.951Z,36.23
2018-12-17T11:43:01.289Z,37.28
2018-12-17T11:45:29.310Z,38.30
2018-12-17T11:47:57.018Z,37.53
2018-12-17T11:50:24.408Z,36.28
2018-12-17T11:52:52.780Z,36.50
2018-12-17T11:55:20.329Z,37.60
2018-12-17T11:58:03.971Z,37.95
2018-12-17T12:00:31.519Z,36.45
2018-12-17T12:02:59.299Z,36.90
2018-12-17T12:05:27.468Z,37.20
2018-12-17T12:07:54.865Z,38.08
2018-12-17T12:10:22.239Z,37.73
2018-12-17T12:12:50.261Z,37.10
2018-12-17T12:15:17.604Z,37.17
2018-12-17T12:17:44.972Z,39.85
2018-12-17T12:20:12.559Z,38.30
2018-12-17T12:22:40.213Z,37.67
2018-12-17T12:25:07.572Z,38.17
2018-12-17T12:27:35.193Z,38.88
2018-12-17T12:30:04.343Z,38.80
2018-12-17T12:32:31.927Z,39.15
2018-12-17T12:34:59.585Z,37.33
2018-12-17T12:37:26.966Z,38.78
2018-12-17T12:39:54.353Z,39.83
2018-12-17T12:42:21.739Z,39.40
2018-12-17T12:44:49.359Z,39.85
2018-12-17T12:47:17.330Z,40.70
2018-12-17T12:49:44.885Z,40.15
2018-12-17T12:52:12.453Z,41.00
2018-12-17T12:54:40.420Z,41.10
2018-12-17T12:57:08.091Z,47.40
2018-12-17T12:59:35.667Z,40.85
2018-12-17T13:02:03.607Z,40.40
2018-12-17T13:04:30.971Z,39.25
2018-12-17T13:06:58.288Z,40.90
2018-12-17T13:09:25.691Z,38.75
2018-12-17T13:11:53.096Z,37.03
2018-12-17T13:14:21.004Z,37.50
2018-12-17T13:16:48.624Z,37.13
2018-12-17T13:19:16.492Z,35.37
2018-12-17T13:21:44.121Z,36.00
2018-12-17T13:24:11.654Z,37.93
2018-12-17T13:26:39.311Z,35.83
2018-12-17T13:29:06.910Z,38.17
2018-12-17T13:31:34.850Z,36.68
2018-12-17T13:34:02.460Z,37.00
2018-12-17T13:36:29.781Z,38.93
2018-12-17T13:38:57.141Z,37.67
2018-12-17T13:41:24.953Z,37.55
2018-12-17T13:43:53.050Z,40.10
2018-12-17T13:46:20.382Z,39.78
2018-12-17T13:48:47.939Z,43.28
2018-12-17T13:51:20.757Z,38.98
2018-12-17T13:53:48.108Z,39.70
2018-12-17T13:56:15.423Z,40.70
2018-12-17T13:58:43.015Z,41.53
2018-12-17T14:01:10.892Z,40.07
2018-12-17T14:03:38.532Z,40.67
2018-12-17T14:06:06.212Z,41.33
2018-12-17T14:08:33.550Z,41.70
2018-12-17T14:11:01.618Z,41.40
2018-12-17T14:13:28.967Z,42.00
2018-12-17T14:16:01.568Z,42.27
2018-12-17T14:18:34.384Z,41.65
2018-12-17T14:21:07.393Z,42.20
2018-12-17T14:23:34.734Z,41.80
2018-12-17T14:26:02.468Z,42.33
2018-12-17T14:28:30.023Z,43.30
2018-12-17T14:30:57.624Z,42.58
2018-12-17T14:33:25.555Z,40.95
2018-12-17T14:36:25.480Z,41.25
2018-12-17T14:38:53.189Z,39.50
2018-12-17T14:44:01.687Z,40.00
2018-12-17T14:46:33.464Z,39.58
2018-12-17T14:49:01.195Z,39.30
2018-12-17T14:51:28.511Z,39.37
2018-12-17T14:53:55.919Z,37.80
2018-12-17T14:56:23.484Z,38.13
2018-12-17T14:58:51.031Z,39.70
2018-12-17T15:01:18.692Z,38.33
2018-12-17T15:03:46.511Z,41.35
2018-12-17T15:06:14.097Z,38.60
2018-12-17T15:08:41.715Z,38.28
2018-12-17T15:11:09.441Z,38.50
2018-12-17T15:13:36.792Z,38.40
2018-12-17T15:16:04.119Z,38.33
2018-12-17T15:18:31.480Z,39.63
2018-12-17T15:20:59.071Z,36.85
2018-12-17T15:23:26.674Z,38.83
2018-12-17T15:25:53.974Z,37.43
2018-12-17T15:28:21.555Z,37.50
2018-12-17T15:30:49.217Z,37.03
2018-12-17T15:33:16.502Z,36.55
2018-12-17T15:35:44.224Z,36.15
2018-12-17T15:38:11.887Z,34.55
2018-12-17T15:40:39.234Z,36.63
2018-12-17T15:43:06.549Z,36.80
2018-12-17T15:45:34.263Z,36.65
2018-12-17T15:48:01.665Z,39.90
2018-12-17T15:50:29.255Z,44.03
2018-12-17T15:52:56.578Z,40.90
2018-12-17T15:55:24.177Z,42.27
2018-12-17T15:57:51.475Z,42.70
2018-12-17T16:00:18.852Z,42.00
2018-12-17T16:02:46.460Z,42.88
2018-12-17T16:05:13.815Z,42.70
2018-12-17T16:07:41.423Z,42.30
2018-12-17T16:10:08.902Z,40.38
2018-12-17T16:12:36.497Z,41.53
2018-12-17T16:15:04.235Z,41.20
2018-12-17T16:17:31.924Z,41.23
2018-12-17T16:19:59.261Z,40.43
2018-12-17T16:22:27.135Z,39.15
2018-12-17T16:24:54.484Z,40.28
2018-12-17T16:27:21.991Z,39.55
2018-12-17T16:29:49.486Z,38.98
2018-12-17T16:32:17.174Z,39.20
2018-12-17T16:34:44.544Z,40.60
2018-12-17T16:37:12.607Z,39.43
2018-12-17T16:39:40.173Z,40.20
2018-12-17T16:42:07.830Z,40.23
2018-12-17T16:44:35.225Z,40.80
2018-12-17T16:47:02.588Z,42.08
2018-12-17T16:49:30.206Z,40.00
2018-12-17T16:51:57.645Z,40.90
2018-12-17T16:54:25.143Z,40.30
2018-12-17T16:56:52.519Z,40.00
2018-12-17T16:59:21.899Z,40.40
2018-12-17T17:01:49.887Z,39.70
2018-12-17T17:04:17.195Z,39.98
2018-12-17T17:06:44.544Z,39.37
2018-12-17T17:09:11.930Z,38.95
2018-12-17T17:11:39.574Z,40.75
2018-12-17T17:14:07.229Z,39.55
2018-12-17T17:16:34.898Z,88.85
2018-12-17T17:19:02.551Z,40.45
2018-12-17T17:21:30.194Z,37.55
2018-12-17T17:23:58.302Z,37.38
2018-12-17T17:26:25.700Z,38.30
2018-12-17T17:28:53.324Z,37.70
2018-12-17T17:31:21.291Z,36.00
2018-12-17T17:33:48.947Z,37.30
2018-12-17T17:36:16.615Z,37.50
2018-12-17T17:40:25.320Z,38.13
2018-12-17T17:42:53.215Z,36.10
2018-12-17T17:45:21.055Z,36.80
2018-12-17T17:47:48.969Z,36.28
2018-12-17T17:50:17.035Z,37.38
2018-12-17T17:52:44.657Z,36.95
2018-12-17T17:55:12.140Z,35.28
2018-12-17T17:57:40.111Z,36.25
2018-12-17T18:00:08.591Z,35.73
2018-12-17T18:02:36.190Z,34.88
2018-12-17T18:05:04.327Z,36.17
2018-12-17T18:07:32.884Z,35.08
2018-12-17T18:10:00.577Z,39.50
2018-12-17T18:12:28.758Z,36.28
2018-12-17T18:14:57.551Z,34.60
2018-12-17T18:17:26.054Z,35.95
2018-12-17T18:19:54.064Z,35.00
2018-12-17T18:22:21.865Z,35.03
2018-12-17T18:24:49.732Z,36.38
2018-12-17T18:27:17.210Z,36.17
2018-12-17T18:29:45.223Z,35.23
2018-12-17T18:32:12.670Z,39.67
2018-12-17T18:34:40.482Z,38.08
2018-12-17T18:37:09.227Z,39.73
2018-12-17T18:39:36.751Z,39.23
2018-12-17T18:42:04.260Z,36.80
2018-12-17T18:44:32.016Z,36.80
2018-12-17T18:47:00.458Z,37.53
2018-12-17T18:49:27.993Z,37.73
2018-12-17T18:51:55.578Z,36.42
2018-12-17T18:54:23.337Z,35.87
2018-12-17T18:56:51.042Z,36.90
2018-12-17T18:59:19.275Z,36.15
2018-12-17T19:01:47.116Z,36.88
2018-12-17T19:04:14.807Z,37.35
2018-12-17T19:06:42.266Z,36.42
2018-12-17T19:09:09.891Z,37.35
2018-12-17T19:11:37.589Z,37.70
2018-12-17T19:14:05.329Z,39.05
2018-12-17T19:16:33.521Z,37.77
2018-12-17T19:19:01.392Z,38.25
2018-12-17T19:21:28.859Z,37.23
2018-12-17T19:23:56.401Z,39.40
2018-12-17T19:26:24.053Z,38.30
2018-12-17T19:28:51.708Z,38.83
2018-12-17T19:31:19.638Z,38.65
2018-12-17T19:33:47.662Z,39.23
2018-12-17T19:36:15.401Z,38.45
2018-12-17T19:38:43.433Z,39.27
2018-12-17T19:41:11.152Z,38.40
2018-12-17T19:43:39.075Z,37.20
2018-12-17T19:46:06.498Z,37.95
2018-12-17T19:48:34.443Z,37.90
2018-12-17T19:51:02.182Z,37.60
2018-12-17T19:53:30.747Z,38.65
2018-12-17T19:55:59.831Z,38.00
2018-12-17T19:58:27.583Z,37.73
2018-12-17T20:00:55.543Z,38.53
2018-12-17T20:03:23.862Z,37.50
2018-12-17T20:05:51.583Z,38.30
2018-12-17T20:08:19.710Z,40.70
2018-12-17T20:10:47.618Z,37.10
2018-12-17T20:13:15.579Z,38.28
2018-12-17T20:15:43.462Z,37.03
2018-12-17T20:20:22.598Z,36.60
2018-12-17T20:22:50.318Z,36.35
2018-12-17T20:25:19.359Z,36.45
2018-12-17T20:27:46.943Z,35.30
2018-12-17T20:30:14.573Z,36.30
2018-12-17T20:32:43.064Z,36.73
2018-12-17T20:35:11.096Z,34.88
2018-12-17T20:37:38.607Z,35.70
2018-12-17T20:40:07.591Z,35.05
2018-12-17T20:42:36.263Z,35.30
2018-12-17T20:45:04.878Z,34.67
2018-12-17T20:47:32.842Z,34.18
2018-12-17T20:50:00.824Z,34.92
2018-12-17T20:52:29.180Z,34.70
2018-12-17T20:54:56.839Z,33.80
2018-12-17T20:57:24.405Z,33.08
2018-12-17T20:59:52.026Z,33.70
2018-12-17T21:02:20.269Z,33.88
2018-12-17T21:04:47.818Z,33.33
2018-12-17T21:07:15.378Z,33.20
2018-12-17T21:09:43.432Z,34.10
2018-12-17T21:12:10.975Z,33.10
2018-12-17T21:16:54.830Z,33.25
2018-12-17T21:19:23.926Z,32.48
2018-12-17T21:21:51.537Z,33.25
2018-12-17T21:24:19.370Z,33.80
2018-12-17T21:26:47.194Z,32.78
2018-12-17T21:29:15.165Z,32.67
2018-12-17T21:31:42.588Z,34.37
2018-12-17T21:34:10.491Z,34.00
2018-12-17T21:36:38.666Z,33.48
2018-12-17T21:39:07.493Z,32.73
2018-12-17T21:41:35.347Z,33.23
2018-12-17T21:44:03.125Z,32.40
2018-12-17T21:46:30.715Z,33.03
2018-12-17T21:48:58.122Z,32.03
2018-12-17T21:51:25.910Z,32.75
2018-12-17T21:53:53.360Z,31.52
2018-12-17T21:56:21.605Z,33.20
2018-12-17T21:58:49.215Z,33.00
2018-12-17T22:01:17.264Z,32.08
2018-12-17T22:03:46.660Z,32.53
2018-12-17T22:06:14.327Z,32.25
2018-12-17T22:08:41.905Z,31.45
2018-12-17T22:11:09.446Z,32.73
2018-12-17T22:13:36.915Z,32.90
2018-12-17T22:16:04.887Z,32.65
2018-12-17T22:18:32.325Z,31.77
2018-12-17T22:20:59.792Z,32.28
2018-12-17T22:23:27.323Z,31.83
2018-12-17T22:25:54.910Z,32.50
2018-12-17T22:28:22.581Z,31.93
2018-12-17T22:30:50.086Z,32.15
2018-12-17T22:33:19.933Z,31.70
2018-12-17T22:35:47.551Z,32.42
2018-12-17T22:38:15.387Z,32.77
2018-12-17T22:40:42.843Z,32.95
2018-12-17T22:43:10.297Z,32.63
2018-12-17T22:45:37.725Z,32.73
2018-12-17T22:48:05.142Z,31.73
2018-12-17T22:50:33.476Z,31.87
2018-12-17T22:53:02.691Z,33.83
2018-12-17T22:55:30.277Z,31.60
2018-12-17T22:57:58.206Z,33.10
2018-12-17T23:00:25.987Z,31.73
2018-12-17T23:02:53.470Z,33.05
2018-12-17T23:05:21.215Z,32.95
2018-12-17T23:07:48.889Z,34.15
2018-12-17T23:10:23.018Z,34.03
2018-12-17T23:12:56.153Z,33.40
2018-12-17T23:15:29.607Z,31.90
2018-12-17T23:17:56.564Z,31.82
2018-12-17T23:20:24.019Z,32.20
2018-12-17T23:22:51.635Z,33.00
2018-12-17T23:25:19.265Z,33.18
2018-12-17T23:27:48.306Z,32.78
2018-12-17T23:30:16.058Z,31.15
2018-12-17T23:32:44.640Z,34.10
2018-12-17T23:35:12.034Z,32.87
2018-12-17T23:37:39.556Z,32.95
2018-12-17T23:40:08.395Z,32.30
2018-12-17T23:42:36.487Z,32.28
2018-12-17T23:45:04.489Z,31.20
2018-12-17T23:47:32.567Z,30.87
2018-12-17T23:49:59.998Z,31.37
2018-12-17T23:52:27.623Z,33.28
2018-12-17T23:54:55.662Z,31.37
2018-12-17T23:57:23.302Z,31.20
2018-12-17T23:59:50.791Z,30.73
